Campton, New Hampshire
Current Conditions -  °F | °C
As of 7:15 PM on Saturday 22 Nov 2014 (Local Time) from K1P1 Reporting Station
Overcast Overcast  
Wind Chill: 31°   Ceiling: 4100
Heat Index: 31°   Visibility: 10mi
Dew Point: 25°   Wind: 0mph
Humidity: 77%   Direction: NA
Pressure: 30.01"   Gusts: NA
Location:  43.86°N, 71.65°W
Report Text: K1P1 230015Z AUTO 00000KT 10SM OVC041 00/M04 A3001 RMK AO2 T10051040
Loading
Personal Weather Stations






























Interactive Weather Map New forecast layout! Learn more

10-Day Weather Forecast

Advertisements
Track Severe Weather on mobile